Time;durP1;ratioP1;P1;durP2;ratioP2;P2;SDS_P1;SDS_P2;PMS_P1;PMS_P2;Temp;Humidity;BMP_temperature;BMP_pressure;BME280_temperature;BME280_humidity;BME280_pressure;Samples;Min_cycle;Max_cycle;Signal;HPM_P1;HPM_P2
2023/05/18 00:00:52;;;;;;;;;;;;;;;9.27;87.38;95851.53;5114950;28;19930;-60
2023/05/18 00:03:19;;;;;;;;;;;;;;;9.16;87.45;95852.00;5114877;27;20373;-59
2023/05/18 00:05:48;;;;;;;;;;;;;;;9.16;88.38;95844.19;5114846;28;19927;-60
2023/05/18 00:08:14;;;;;;;;;;;;;;;9.18;87.89;95842.34;5114789;28;19924;-59
2023/05/18 00:10:41;;;;;;;;;;;;;;;9.15;87.94;95842.47;5114735;28;20323;-60
2023/05/18 00:13:08;;;;;;;;;;;;;;;9.13;88.16;95840.84;5114718;28;19982;-59
2023/05/18 00:15:35;;;;;;;;;;;;;;;9.18;88.38;95833.69;5114754;28;19924;-59
2023/05/18 00:18:03;;;;;;;;;;;;;;;9.21;88.90;95830.91;5114599;28;19924;-59
2023/05/18 00:20:30;;;;;;;;;;;;;;;9.20;88.34;95829.22;5114677;27;19924;-59
2023/05/18 00:22:57;;;;;;;;;;;;;;;9.15;88.33;95833.81;5114515;28;20385;-59
2023/05/18 00:25:24;;;;;;;;;;;;;;;9.14;88.30;95840.78;5114430;28;19924;-60
2023/05/18 00:27:51;;;;;;;;;;;;;;;9.14;88.39;95842.53;5114131;28;19947;-58
2023/05/18 00:30:17;;;;;;;;;;;;;;;9.17;89.09;95850.22;5114343;28;19928;-60
2023/05/18 00:32:47;;;;;;;;;;;;;;;9.23;88.74;95853.44;5114338;28;19928;-60
2023/05/18 00:35:15;;;;;;;;;;;;;;;9.22;89.00;95853.50;5114284;28;20434;-59
2023/05/18 00:37:42;;;;;;;;;;;;;;;9.27;89.46;95856.75;5114263;28;19924;-60
2023/05/18 00:40:10;;;;;;;;;;;;;;;9.31;89.24;95858.31;5114279;28;19928;-59
2023/05/18 00:42:37;;;;;;;;;;;;;;;9.32;88.82;95856.53;5114264;28;19992;-59
2023/05/18 00:45:05;;;;;;;;;;;;;;;9.29;88.62;95854.06;5114164;28;19969;-60
2023/05/18 00:47:32;;;;;;;;;;;;;;;9.27;88.85;95854.13;5114107;28;19930;-59
2023/05/18 00:49:58;;;;;;;;;;;;;;;9.27;88.48;95855.91;5114227;28;19953;-59
2023/05/18 00:52:27;;;;;;;;;;;;;;;9.25;88.30;95855.97;5114255;28;19928;-60
2023/05/18 00:54:54;;;;;;;;;;;;;;;9.27;88.10;95850.69;5113975;28;19963;-59
2023/05/18 00:57:21;;;;;;;;;;;;;;;9.27;87.97;95848.09;5114033;28;19928;-59
2023/05/18 00:59:48;;;;;;;;;;;;;;;9.21;87.60;95859.63;5114012;28;19924;-59
2023/05/18 01:02:15;;;;;;;;;;;;;;;9.21;87.38;95849.19;5113940;28;19924;-58
2023/05/18 01:04:42;;;;;;;;;;;;;;;9.21;87.32;95854.41;5113905;28;19923;-58
2023/05/18 01:07:09;;;;;;;;;;;;;;;9.18;88.24;95852.78;5113953;28;19953;-58
2023/05/18 01:09:38;;;;;;;;;;;;;;;9.11;88.09;95864.41;5113968;28;19924;-59
2023/05/18 01:12:10;;;;;;;;;;;;;;;9.10;89.08;95854.88;5118120;28;19938;-60
2023/05/18 01:14:44;;;;;;;;;;;;;;;9.12;88.98;95854.81;5118091;28;19970;-58
2023/05/18 01:17:17;;;;;;;;;;;;;;;9.13;88.56;95861.72;5118094;28;20303;-59
2023/05/18 01:19:59;;;;;;;;;;;;;;;9.05;88.31;95864.66;5118058;28;20011;-59
2023/05/18 01:22:32;;;;;;;;;;;;;;;9.03;88.30;95858.66;5118045;27;19950;-59
2023/05/18 01:25:05;;;;;;;;;;;;;;;9.03;88.31;95856.88;5118093;28;19924;-60
2023/05/18 01:27:36;;;;;;;;;;;;;;;8.95;88.38;95851.16;5117743;28;20019;-59
2023/05/18 01:30:03;;;;;;;;;;;;;;;8.85;88.52;95853.28;5117906;28;19981;-60
2023/05/18 01:32:30;;;;;;;;;;;;;;;8.89;89.66;95859.25;5117843;28;19924;-59
2023/05/18 01:34:57;;;;;;;;;;;;;;;8.87;89.76;95859.31;5117684;28;19931;-60
2023/05/18 01:37:24;;;;;;;;;;;;;;;8.85;89.53;95863.72;5117707;28;20002;-60
2023/05/18 01:39:51;;;;;;;;;;;;;;;8.82;89.77;95861.28;5117755;28;19924;-58
2023/05/18 01:42:21;;;;;;;;;;;;;;;8.84;89.70;95869.88;5117623;28;19982;-58
2023/05/18 01:44:51;;;;;;;;;;;;;;;8.86;89.28;95873.28;5117596;28;20006;-59
2023/05/18 01:47:18;;;;;;;;;;;;;;;8.85;89.09;95866.34;5117549;28;20014;-60
2023/05/18 01:49:47;;;;;;;;;;;;;;;8.85;89.06;95868.94;5117444;28;20373;-60
2023/05/18 01:52:17;;;;;;;;;;;;;;;8.74;89.46;95878.97;5117465;28;19953;-59
2023/05/18 01:54:46;;;;;;;;;;;;;;;8.72;89.85;95874.69;5117335;28;19968;-59
2023/05/18 01:57:13;;;;;;;;;;;;;;;8.73;89.77;95875.53;5117314;28;20395;-58
2023/05/18 01:59:40;;;;;;;;;;;;;;;8.77;89.39;95871.03;5117276;27;19931;-58
2023/05/18 02:02:08;;;;;;;;;;;;;;;8.80;89.85;95879.59;5117249;28;20335;-59
2023/05/18 02:04:35;;;;;;;;;;;;;;;8.81;89.94;95883.88;5117382;28;19923;-59
2023/05/18 02:07:02;;;;;;;;;;;;;;;8.79;89.87;95884.88;5117343;28;19928;-60
2023/05/18 02:09:29;;;;;;;;;;;;;;;8.77;89.69;95878.88;5117051;28;20422;-60
2023/05/18 02:11:55;;;;;;;;;;;;;;;8.80;89.63;95884.81;5117086;28;19935;-59
2023/05/18 02:14:22;;;;;;;;;;;;;;;8.77;89.64;95887.53;5116888;28;20385;-61
2023/05/18 02:16:51;;;;;;;;;;;;;;;8.78;89.55;95889.22;5116968;28;19969;-60
2023/05/18 02:19:20;;;;;;;;;;;;;;;8.76;89.47;95887.59;5116963;28;19924;-61
2023/05/18 02:21:47;;;;;;;;;;;;;;;8.72;89.63;95887.72;5116879;28;19969;-61
2023/05/18 02:24:13;;;;;;;;;;;;;;;8.72;90.12;95886.88;5116814;28;20036;-61
2023/05/18 02:26:40;;;;;;;;;;;;;;;8.66;89.96;95895.78;5116849;28;20010;-60
2023/05/18 02:29:10;;;;;;;;;;;;;;;8.62;90.27;95894.22;5116579;27;19930;-61
2023/05/18 02:31:37;;;;;;;;;;;;;;;8.62;90.20;95893.38;5116851;28;19923;-60
2023/05/18 02:34:03;;;;;;;;;;;;;;;8.60;90.45;95896.03;5116606;28;20030;-60
2023/05/18 02:36:35;;;;;;;;;;;;;;;8.55;90.41;95901.44;5116652;28;20008;-60
2023/05/18 02:39:02;;;;;;;;;;;;;;;8.49;90.92;95901.66;5116529;28;20460;-61
2023/05/18 02:41:29;;;;;;;;;;;;;;;8.44;91.38;95903.59;5116471;27;19930;-60
2023/05/18 02:43:56;;;;;;;;;;;;;;;8.36;91.87;95909.09;5116529;28;19924;-61
2023/05/18 02:46:23;;;;;;;;;;;;;;;8.44;92.39;95916.63;5116385;28;19966;-61
2023/05/18 02:48:49;;;;;;;;;;;;;;;8.46;91.52;95917.44;5116470;28;20343;-61
2023/05/18 02:51:16;;;;;;;;;;;;;;;8.47;91.04;95917.38;5116304;28;19924;-60
2023/05/18 02:53:45;;;;;;;;;;;;;;;8.50;91.54;95923.34;5116291;28;19924;-61
2023/05/18 02:56:12;;;;;;;;;;;;;;;8.57;91.86;95927.44;5116297;27;19993;-60
2023/05/18 02:58:39;;;;;;;;;;;;;;;8.63;91.77;95934.16;5116261;28;19928;-60
2023/05/18 03:01:07;;;;;;;;;;;;;;;8.62;91.28;95943.78;5116130;28;20369;-60
2023/05/18 03:03:34;;;;;;;;;;;;;;;8.65;91.22;95943.66;5116044;28;19927;-61
2023/05/18 03:06:01;;;;;;;;;;;;;;;8.65;91.16;95946.25;5116034;28;19931;-59
2023/05/18 03:08:30;;;;;;;;;;;;;;;8.63;91.58;95952.41;5116031;28;19924;-61
2023/05/18 03:10:58;;;;;;;;;;;;;;;8.66;91.92;95947.94;5115973;28;19982;-59
2023/05/18 03:13:25;;;;;;;;;;;;;;;8.74;94.18;95950.25;5115839;28;20015;-60
2023/05/18 03:15:52;;;;;;;;;;;;;;;8.88;97.13;95951.47;5115714;28;19967;-61
2023/05/18 03:18:19;;;;;;;;;;;;;;;8.91;96.33;95948.72;5115819;28;19950;-59
2023/05/18 03:20:46;;;;;;;;;;;;;;;8.91;95.70;95957.38;5115758;28;19976;-61
2023/05/18 03:23:13;;;;;;;;;;;;;;;8.99;96.16;95946.63;5115797;28;20373;-61
2023/05/18 03:25:39;;;;;;;;;;;;;;;9.05;97.19;95954.22;5115576;28;20014;-60
2023/05/18 03:28:08;;;;;;;;;;;;;;;9.12;100.00;95952.19;5115374;28;20014;-60
2023/05/18 03:30:35;;;;;;;;;;;;;;;9.24;100.00;95958.66;5115516;28;19927;-60
2023/05/18 03:33:02;;;;;;;;;;;;;;;9.36;100.00;95954.69;5114932;28;19928;-60
2023/05/18 03:35:29;;;;;;;;;;;;;;;9.48;100.00;95959.38;5115541;28;19924;-61
2023/05/18 03:37:56;;;;;;;;;;;;;;;9.60;100.00;95964.97;5115437;27;19924;-60
2023/05/18 03:40:23;;;;;;;;;;;;;;;9.67;100.00;95969.06;5115334;28;19924;-60
2023/05/18 03:42:50;;;;;;;;;;;;;;;9.74;100.00;95972.22;5115394;28;20389;-60
2023/05/18 03:45:18;;;;;;;;;;;;;;;9.82;100.00;95971.91;5115312;27;19931;-61
2023/05/18 03:47:46;;;;;;;;;;;;;;;9.92;100.00;95972.31;5115354;27;20334;-61
2023/05/18 03:50:13;;;;;;;;;;;;;;;9.99;99.62;95973.75;5115170;28;19924;-61
2023/05/18 03:52:40;;;;;;;;;;;;;;;10.03;99.56;95974.47;5115114;28;19923;-61
2023/05/18 03:55:08;;;;;;;;;;;;;;;10.11;99.44;95969.72;5114933;28;19924;-59
2023/05/18 03:57:34;;;;;;;;;;;;;;;10.17;99.41;95976.47;5114927;28;19950;-61
2023/05/18 04:00:06;;;;;;;;;;;;;;;10.26;99.22;95989.09;5114979;28;19928;-60
2023/05/18 04:02:35;;;;;;;;;;;;;;;10.33;99.03;95992.28;5114905;27;19928;-60
2023/05/18 04:05:02;;;;;;;;;;;;;;;10.40;98.79;95988.47;5114875;28;19928;-61
2023/05/18 04:07:29;;;;;;;;;;;;;;;10.46;98.74;95988.22;5114776;28;19924;-60
2023/05/18 04:09:56;;;;;;;;;;;;;;;10.58;98.78;95994.66;5114829;27;19924;-60
2023/05/18 04:12:23;;;;;;;;;;;;;;;10.67;98.29;95990.75;5114729;28;20471;-59
2023/05/18 04:14:50;;;;;;;;;;;;;;;10.75;98.10;95985.16;5114685;28;19924;-60
2023/05/18 04:17:17;;;;;;;;;;;;;;;10.83;98.15;95988.25;5114762;28;19984;-60
2023/05/18 04:19:46;;;;;;;;;;;;;;;10.93;98.17;95995.66;5113328;28;20262;-59
2023/05/18 04:22:13;;;;;;;;;;;;;;;10.96;98.13;95991.13;5114470;28;19923;-61
2023/05/18 04:24:41;;;;;;;;;;;;;;;11.07;98.11;95994.97;5114483;28;19923;-61
2023/05/18 04:27:10;;;;;;;;;;;;;;;11.18;97.93;95989.22;5114417;28;19924;-60
2023/05/18 04:29:38;;;;;;;;;;;;;;;11.29;97.80;95991.31;5114204;28;19947;-61
2023/05/18 04:32:06;;;;;;;;;;;;;;;11.42;97.65;95996.78;5114470;28;19931;-60
2023/05/18 04:34:34;;;;;;;;;;;;;;;11.56;97.62;95996.09;5114410;28;19927;-59
2023/05/18 04:37:04;;;;;;;;;;;;;;;11.67;97.74;95992.91;5114284;28;19931;-57
2023/05/18 04:39:31;;;;;;;;;;;;;;;11.79;97.44;95997.53;5114319;28;20296;-59
2023/05/18 04:41:58;;;;;;;;;;;;;;;11.88;97.43;96004.06;5114311;28;19946;-59
2023/05/18 04:44:26;;;;;;;;;;;;;;;12.01;97.41;96009.50;5113665;28;19971;-61
2023/05/18 04:46:53;;;;;;;;;;;;;;;12.14;97.20;96015.00;5113963;28;19924;-60
2023/05/18 04:49:21;;;;;;;;;;;;;;;12.24;96.90;96016.22;5114217;27;19931;-59
2023/05/18 04:51:49;;;;;;;;;;;;;;;12.36;96.67;96012.09;5114071;28;19976;-59
2023/05/18 04:54:19;;;;;;;;;;;;;;;12.49;96.76;96014.03;5114050;28;20022;-60
2023/05/18 04:56:46;;;;;;;;;;;;;;;12.59;96.30;96012.63;5113990;28;19935;-60
2023/05/18 04:59:13;;;;;;;;;;;;;;;12.70;95.65;96021.69;5114095;28;20261;-59
2023/05/18 05:01:40;;;;;;;;;;;;;;;12.78;95.76;96019.47;5114006;28;20381;-59
2023/05/18 05:04:07;;;;;;;;;;;;;;;12.88;96.20;96019.81;5114021;28;19986;-60
2023/05/18 05:06:34;;;;;;;;;;;;;;;12.99;95.71;96022.69;5114017;28;19983;-60
2023/05/18 05:09:01;;;;;;;;;;;;;;;13.11;94.64;96023.78;5113863;28;19928;-60
2023/05/18 05:11:29;;;;;;;;;;;;;;;13.20;94.25;96032.91;5113884;28;19924;-60
2023/05/18 05:13:56;;;;;;;;;;;;;;;13.29;93.22;96033.31;5114038;28;19931;-60
2023/05/18 05:16:23;;;;;;;;;;;;;;;13.39;93.04;96031.84;5113892;28;19924;-61
2023/05/18 05:18:50;;;;;;;;;;;;;;;13.56;93.10;96027.44;5113927;28;19923;-59
2023/05/18 05:21:17;;;;;;;;;;;;;;;13.70;92.81;96030.09;5113821;28;19927;-61
2023/05/18 05:23:44;;;;;;;;;;;;;;;13.76;88.39;96031.53;5113724;28;19971;-60
2023/05/18 05:26:11;;;;;;;;;;;;;;;13.88;89.83;96041.31;5113874;28;19923;-59
2023/05/18 05:28:39;;;;;;;;;;;;;;;14.06;90.47;96033.25;5113669;28;19984;-60
2023/05/18 05:31:06;;;;;;;;;;;;;;;14.23;88.81;96039.28;5113768;28;20343;-60
2023/05/18 05:33:33;;;;;;;;;;;;;;;14.28;86.80;96045.97;5113667;28;20018;-60
2023/05/18 05:36:00;;;;;;;;;;;;;;;14.33;85.72;96048.28;5113636;28;19924;-60
2023/05/18 05:38:27;;;;;;;;;;;;;;;14.22;84.00;96050.75;5113726;28;20274;-59
2023/05/18 05:40:54;;;;;;;;;;;;;;;13.93;82.83;96055.97;5113642;28;19928;-59
2023/05/18 05:43:21;;;;;;;;;;;;;;;13.86;83.92;96053.72;5113533;28;19930;-59
2023/05/18 05:45:49;;;;;;;;;;;;;;;13.90;85.62;96057.84;5113560;28;19924;-59
2023/05/18 05:48:16;;;;;;;;;;;;;;;13.99;86.57;96055.59;5113608;28;19924;-60
2023/05/18 05:50:43;;;;;;;;;;;;;;;14.07;87.07;96065.66;5113626;28;19983;-60
2023/05/18 05:53:10;;;;;;;;;;;;;;;14.03;85.97;96057.94;5113468;28;19923;-60
2023/05/18 05:55:40;;;;;;;;;;;;;;;13.93;86.28;96066.50;5113324;28;19983;-60
2023/05/18 05:58:07;;;;;;;;;;;;;;;13.93;84.05;96066.50;5117344;28;19923;-60
2023/05/18 06:00:34;;;;;;;;;;;;;;;13.95;83.31;96062.84;5117271;28;19927;-59
2023/05/18 06:03:03;;;;;;;;;;;;;;;14.05;84.53;96068.38;5117263;28;19970;-60
2023/05/18 06:05:29;;;;;;;;;;;;;;;14.09;83.41;96064.63;5117327;28;19924;-60
2023/05/18 06:07:56;;;;;;;;;;;;;;;14.05;84.29;96068.38;5117172;28;19977;-60
2023/05/18 06:10:23;;;;;;;;;;;;;;;13.98;83.52;96061.81;5117136;28;20019;-60
2023/05/18 06:12:50;;;;;;;;;;;;;;;13.90;83.66;96062.25;5117062;28;19924;-60
2023/05/18 06:15:17;;;;;;;;;;;;;;;13.99;86.22;96068.75;5117116;28;20378;-59
2023/05/18 06:17:44;;;;;;;;;;;;;;;14.02;86.31;96072.06;5116933;28;20307;-59
2023/05/18 06:20:13;;;;;;;;;;;;;;;13.91;84.10;96069.22;5116846;28;19923;-60
2023/05/18 06:22:40;;;;;;;;;;;;;;;13.85;84.73;96082.72;5116961;28;19928;-60
2023/05/18 06:25:09;;;;;;;;;;;;;;;13.80;84.88;96084.75;5116804;28;20292;-59
2023/05/18 06:27:36;;;;;;;;;;;;;;;13.71;85.12;96084.38;5116551;28;19977;-59
2023/05/18 06:30:04;;;;;;;;;;;;;;;13.72;84.84;96096.56;5116796;28;19934;-58
2023/05/18 06:32:31;;;;;;;;;;;;;;;13.75;85.23;96087.66;5116872;28;19928;-58
2023/05/18 06:34:58;;;;;;;;;;;;;;;13.74;84.53;96081.56;5116765;28;20345;-60
2023/05/18 06:37:26;;;;;;;;;;;;;;;13.75;84.36;96088.50;5116560;28;19924;-59
2023/05/18 06:39:53;;;;;;;;;;;;;;;13.75;84.69;96093.75;5116567;28;19928;-59
2023/05/18 06:42:20;;;;;;;;;;;;;;;13.82;85.50;96088.97;5116543;28;19924;-60
2023/05/18 06:44:49;;;;;;;;;;;;;;;13.84;85.76;96100.25;5116477;28;20007;-59
2023/05/18 06:47:16;;;;;;;;;;;;;;;13.87;85.22;96096.59;5116419;28;19931;-59
2023/05/18 06:49:42;;;;;;;;;;;;;;;13.93;88.17;96104.13;5116335;28;20403;-60
2023/05/18 06:52:10;;;;;;;;;;;;;;;13.92;87.08;96105.09;5116376;28;19974;-58
2023/05/18 06:54:38;;;;;;;;;;;;;;;13.92;85.87;96109.47;5116309;28;20020;-58
2023/05/18 06:57:05;;;;;;;;;;;;;;;13.96;86.49;96116.25;5116243;28;19923;-59
2023/05/18 06:59:33;;;;;;;;;;;;;;;14.01;86.49;96116.84;5116275;28;19924;-59
2023/05/18 07:02:00;;;;;;;;;;;;;;;14.05;85.93;96118.34;5116167;28;20381;-58
2023/05/18 07:04:26;;;;;;;;;;;;;;;14.06;82.75;96127.09;5116218;28;19958;-59
2023/05/18 07:06:54;;;;;;;;;;;;;;;14.06;79.09;96127.09;5116040;28;20007;-60
2023/05/18 07:09:21;;;;;;;;;;;;;;;13.99;73.84;96126.59;5115142;28;19985;-59
2023/05/18 07:11:50;;;;;;;;;;;;;;;14.03;81.20;96128.13;5115878;28;20385;-60
2023/05/18 07:14:16;;;;;;;;;;;;;;;14.08;81.57;96128.69;5115862;28;19931;-59
2023/05/18 07:16:46;;;;;;;;;;;;;;;14.15;80.28;96131.81;5115744;28;20022;-59
2023/05/18 07:19:12;;;;;;;;;;;;;;;14.26;82.00;96129.38;5115712;28;19977;-59
2023/05/18 07:21:40;;;;;;;;;;;;;;;14.41;81.01;96142.56;5115836;28;19923;-59
2023/05/18 07:24:07;;;;;;;;;;;;;;;14.40;77.11;96136.47;5115804;28;19927;-59
2023/05/18 07:26:34;;;;;;;;;;;;;;;14.51;77.16;96138.44;5115580;28;19923;-59
2023/05/18 07:29:02;;;;;;;;;;;;;;;14.60;75.07;96139.66;5115405;28;19934;-59
2023/05/18 07:31:30;;;;;;;;;;;;;;;14.57;74.67;96144.28;5115559;28;19931;-59
2023/05/18 07:33:56;;;;;;;;;;;;;;;14.63;74.31;96146.53;5115512;28;19948;-60
2023/05/18 07:36:24;;;;;;;;;;;;;;;14.83;76.19;96144.47;5115366;28;20488;-59
2023/05/18 07:38:53;;;;;;;;;;;;;;;14.81;74.75;96147.22;5115486;28;19931;-59
2023/05/18 07:41:21;;;;;;;;;;;;;;;14.79;73.57;96154.38;5115354;28;20282;-59
2023/05/18 07:43:48;;;;;;;;;;;;;;;14.85;74.86;96161.03;5115297;28;20430;-59
2023/05/18 07:46:16;;;;;;;;;;;;;;;14.94;74.97;96162.25;5115232;28;19968;-59
2023/05/18 07:48:43;;;;;;;;;;;;;;;14.88;71.07;96159.09;5115207;28;19969;-60
2023/05/18 07:51:11;;;;;;;;;;;;;;;14.83;69.12;96174.31;5115416;28;20010;-59
2023/05/18 07:53:38;;;;;;;;;;;;;;;14.80;70.70;96171.84;5115210;28;19923;-59
2023/05/18 07:56:05;;;;;;;;;;;;;;;14.66;70.51;96172.69;5115064;28;19923;-60
2023/05/18 07:58:32;;;;;;;;;;;;;;;14.76;74.03;96172.97;5114978;28;19924;-59
2023/05/18 08:00:59;;;;;;;;;;;;;;;14.78;71.23;96176.38;5115098;28;19924;-59
2023/05/18 08:03:28;;;;;;;;;;;;;;;14.86;72.78;96181.16;5114918;28;19924;-59
2023/05/18 08:05:55;;;;;;;;;;;;;;;14.93;74.12;96186.91;5114904;28;19928;-59
2023/05/18 08:08:21;;;;;;;;;;;;;;;14.99;74.10;96187.38;5114778;28;19970;-59
2023/05/18 08:10:48;;;;;;;;;;;;;;;15.06;72.30;96192.25;5114879;28;19924;-60
2023/05/18 08:13:16;;;;;;;;;;;;;;;15.02;71.15;96196.88;5114833;28;19959;-59
2023/05/18 08:15:43;;;;;;;;;;;;;;;15.02;72.24;96200.34;5114842;28;19928;-60
2023/05/18 08:18:10;;;;;;;;;;;;;;;15.05;72.55;96209.00;5114513;28;20357;-59
2023/05/18 08:20:38;;;;;;;;;;;;;;;14.99;70.25;96207.59;5114715;28;19928;-59
2023/05/18 08:23:06;;;;;;;;;;;;;;;14.91;72.73;96208.91;5114601;28;19923;-59
2023/05/18 08:25:33;;;;;;;;;;;;;;;14.85;71.47;96208.44;5114549;28;19924;-59
2023/05/18 08:28:00;;;;;;;;;;;;;;;14.83;70.42;96211.16;5114230;28;20351;-59
2023/05/18 08:30:26;;;;;;;;;;;;;;;14.93;72.84;96213.25;5114524;28;19931;-59
2023/05/18 08:32:53;;;;;;;;;;;;;;;14.90;69.28;96223.00;5114520;28;19984;-59
2023/05/18 08:35:21;;;;;;;;;;;;;;;14.82;68.47;96225.28;5114441;28;19997;-59
2023/05/18 08:37:49;;;;;;;;;;;;;;;14.83;70.61;96218.19;5114423;28;19930;-60
2023/05/18 08:40:16;;;;;;;;;;;;;;;14.97;70.89;96223.50;5114341;28;19923;-60
2023/05/18 08:42:47;;;;;;;;;;;;;;;15.18;71.73;96220.50;5114307;28;20381;-61
2023/05/18 08:45:18;;;;;;;;;;;;;;;15.40;68.45;96216.50;5114559;28;20369;-60
2023/05/18 08:47:46;;;;;;;;;;;;;;;15.45;67.28;96216.22;5114241;28;20044;-59
2023/05/18 08:50:14;;;;;;;;;;;;;;;15.56;69.54;96218.19;5114124;28;19923;-59
2023/05/18 08:52:44;;;;;;;;;;;;;;;15.53;65.54;96219.19;5114113;28;20369;-59
2023/05/18 08:55:16;;;;;;;;;;;;;;;15.61;68.30;96227.50;5114075;28;19923;-60
2023/05/18 08:57:44;;;;;;;;;;;;;;;15.57;68.03;96239.19;5114248;28;19947;-59
2023/05/18 09:00:12;;;;;;;;;;;;;;;15.59;64.66;96226.72;5113995;28;19978;-60
2023/05/18 09:02:39;;;;;;;;;;;;;;;15.63;66.96;96227.38;5113986;28;19931;-59
2023/05/18 09:05:07;;;;;;;;;;;;;;;15.69;64.61;96236.69;5113900;28;19923;-60
2023/05/18 09:07:35;;;;;;;;;;;;;;;15.65;64.73;96233.41;5113966;28;19967;-60
2023/05/18 09:10:03;;;;;;;;;;;;;;;15.67;65.72;96236.78;5113713;28;19924;-59
2023/05/18 09:12:32;;;;;;;;;;;;;;;15.73;63.53;96240.81;5114188;28;20377;-60
2023/05/18 09:15:00;;;;;;;;;;;;;;;15.76;64.64;96236.22;5113930;28;19971;-60
2023/05/18 09:17:27;;;;;;;;;;;;;;;15.62;62.61;96236.25;5113765;28;19930;-59
2023/05/18 09:19:54;;;;;;;;;;;;;;;15.52;64.97;96234.19;5113873;28;19931;-59
2023/05/18 09:22:21;;;;;;;;;;;;;;;15.50;65.51;96233.44;5113864;28;19976;-59
2023/05/18 09:24:49;;;;;;;;;;;;;;;15.54;64.76;96242.81;5113914;28;19923;-59
2023/05/18 09:27:16;;;;;;;;;;;;;;;15.42;65.24;96251.53;5113682;28;20265;-59
2023/05/18 09:29:53;;;;;;;;;;;;;;;15.41;65.82;96249.81;5113762;28;19924;-57
2023/05/18 09:32:20;;;;;;;;;;;;;;;15.34;68.38;96243.22;5116691;28;19931;-58
2023/05/18 09:34:48;;;;;;;;;;;;;;;15.28;66.27;96249.72;5117799;28;19981;-59
2023/05/18 09:37:16;;;;;;;;;;;;;;;15.38;68.76;96252.66;5117579;28;20431;-59
2023/05/18 09:39:43;;;;;;;;;;;;;;;15.35;64.76;96253.69;5117880;28;19924;-59
2023/05/18 09:42:10;;;;;;;;;;;;;;;15.23;63.77;96260.56;5117642;28;20011;-59
2023/05/18 09:44:37;;;;;;;;;;;;;;;15.10;65.75;96257.84;5117661;28;19975;-59
2023/05/18 09:47:07;;;;;;;;;;;;;;;15.14;65.81;96266.41;5117610;27;20423;-59
2023/05/18 09:49:34;;;;;;;;;;;;;;;15.09;67.50;96261.41;5117455;28;19927;-60
2023/05/18 09:52:01;;;;;;;;;;;;;;;15.02;65.60;96266.19;5117465;28;20389;-60
2023/05/18 09:54:28;;;;;;;;;;;;;;;15.10;68.24;96256.97;5117595;28;19928;-59
2023/05/18 09:56:57;;;;;;;;;;;;;;;15.19;68.95;96263.47;5117390;28;20030;-59
2023/05/18 09:59:24;;;;;;;;;;;;;;;15.31;69.30;96254.81;5117477;28;20006;-59
2023/05/18 10:02:01;;;;;;;;;;;;;;;15.44;70.47;96254.91;5117282;28;19924;-59
2023/05/18 10:04:39;;;;;;;;;;;;;;;15.67;66.28;96249.97;5117221;28;19924;-59
2023/05/18 10:07:11;;;;;;;;;;;;;;;15.89;68.23;96253.88;5117230;28;19962;-59
2023/05/18 10:09:39;;;;;;;;;;;;;;;16.03;66.29;96268.84;5117287;28;19924;-60
2023/05/18 10:12:10;;;;;;;;;;;;;;;16.01;62.73;96270.72;5117055;28;19928;-59
2023/05/18 10:14:37;;;;;;;;;;;;;;;15.98;64.87;96265.69;5117251;28;20381;-59
2023/05/18 10:17:04;;;;;;;;;;;;;;;16.09;65.18;96263.19;5116797;27;19928;-59
2023/05/18 10:19:33;;;;;;;;;;;;;;;16.16;63.32;96253.06;5116998;28;19924;-59
2023/05/18 10:22:02;;;;;;;;;;;;;;;16.30;63.34;96257.44;5116974;28;19927;-59
2023/05/18 10:24:30;;;;;;;;;;;;;;;16.43;60.27;96265.38;5116928;28;19923;-60
2023/05/18 10:26:59;;;;;;;;;;;;;;;16.38;61.29;96268.31;5116895;28;20289;-59
2023/05/18 10:29:27;;;;;;;;;;;;;;;16.33;61.25;96266.94;5116841;27;19930;-60
2023/05/18 10:32:01;;;;;;;;;;;;;;;16.07;60.92;96269.50;5116760;28;19946;-60
2023/05/18 10:34:28;;;;;;;;;;;;;;;15.93;62.79;96268.56;5116774;28;19931;-59
2023/05/18 10:36:56;;;;;;;;;;;;;;;15.94;63.87;96279.94;5116454;28;19924;-58
2023/05/18 10:39:25;;;;;;;;;;;;;;;15.88;63.80;96271.50;5116854;28;19947;-59
2023/05/18 10:41:54;;;;;;;;;;;;;;;15.87;64.31;96279.50;5116385;28;19924;-59
2023/05/18 10:44:22;;;;;;;;;;;;;;;15.71;64.14;96277.00;5115631;28;19923;-59
2023/05/18 10:46:50;;;;;;;;;;;;;;;15.58;64.68;96269.00;5116473;28;19924;-59
2023/05/18 10:49:18;;;;;;;;;;;;;;;15.59;65.94;96276.00;5116385;28;20415;-60
2023/05/18 10:51:46;;;;;;;;;;;;;;;15.62;62.81;96279.25;5116493;28;19924;-60
2023/05/18 10:54:13;;;;;;;;;;;;;;;15.69;64.86;96287.66;5116343;28;19930;-59
2023/05/18 10:56:43;;;;;;;;;;;;;;;15.84;63.76;96291.09;5116338;28;19985;-59
2023/05/18 10:59:11;;;;;;;;;;;;;;;15.94;63.92;96291.34;5116172;28;19923;-59
2023/05/18 11:04:40;;;;;;;;;;;;;;;15.79;64.46;96294.03;5116410;28;19942;-59
2023/05/18 11:07:10;;;;;;;;;;;;;;;15.85;65.72;96290.16;5116258;28;19923;-60
2023/05/18 11:09:41;;;;;;;;;;;;;;;15.86;63.97;96293.66;5116383;28;19923;-60
2023/05/18 11:12:13;;;;;;;;;;;;;;;15.95;64.89;96300.13;5116251;28;19924;-59
2023/05/18 11:14:48;;;;;;;;;;;;;;;16.00;65.29;96298.91;5115956;28;20034;-59
2023/05/18 11:17:16;;;;;;;;;;;;;;;15.88;66.08;96297.00;5116099;28;19989;-59
2023/05/18 11:19:57;;;;;;;;;;;;;;;15.77;65.72;96311.72;5115865;28;20388;-60
2023/05/18 11:22:40;;;;;;;;;;;;;;;15.75;65.48;96307.50;5115767;28;19924;-59
2023/05/18 11:25:08;;;;;;;;;;;;;;;15.66;64.76;96312.38;5116028;28;19924;-59
2023/05/18 11:27:37;;;;;;;;;;;;;;;15.75;65.00;96325.97;5115902;28;19971;-59
2023/05/18 11:30:04;;;;;;;;;;;;;;;15.71;66.50;96325.28;5115853;27;19928;-59
2023/05/18 11:32:32;;;;;;;;;;;;;;;15.73;64.91;96323.41;5115645;28;20289;-59
2023/05/18 11:34:59;;;;;;;;;;;;;;;15.94;65.23;96328.28;5115520;28;19924;-60
2023/05/18 11:37:45;;;;;;;;;;;;;;;15.98;66.06;96339.53;5115431;28;19928;-59
2023/05/18 11:40:13;;;;;;;;;;;;;;;16.00;67.14;96332.34;5115416;28;19931;-61
2023/05/18 11:42:41;;;;;;;;;;;;;;;15.87;63.66;96338.34;5115454;28;20010;-59
2023/05/18 11:45:08;;;;;;;;;;;;;;;15.58;62.08;96341.03;5115358;28;20007;-58
2023/05/18 11:47:36;;;;;;;;;;;;;;;15.48;62.87;96339.91;5115331;28;19928;-60
2023/05/18 11:50:06;;;;;;;;;;;;;;;15.37;63.14;96341.41;5115390;28;19966;-59
2023/05/18 11:52:33;;;;;;;;;;;;;;;15.26;63.94;96346.50;5115229;28;19967;-60
2023/05/18 11:55:00;;;;;;;;;;;;;;;15.10;65.49;96341.25;5114759;28;19924;-59
2023/05/18 11:57:39;;;;;;;;;;;;;;;15.14;64.65;96348.06;5115103;28;19980;-60
2023/05/18 12:00:10;;;;;;;;;;;;;;;15.06;65.65;96350.28;5115080;28;19924;-60
2023/05/18 12:02:38;;;;;;;;;;;;;;;15.00;65.84;96351.50;5115091;28;19927;-59
2023/05/18 12:05:07;;;;;;;;;;;;;;;14.83;66.43;96347.22;5115278;28;19930;-58
2023/05/18 12:07:35;;;;;;;;;;;;;;;14.92;67.74;96344.06;5114906;28;19928;-60
2023/05/18 12:10:03;;;;;;;;;;;;;;;14.84;68.49;96352.41;5114943;28;19994;-59
2023/05/18 12:12:30;;;;;;;;;;;;;;;14.81;69.08;96354.38;5114838;28;19932;-58
2023/05/18 12:14:58;;;;;;;;;;;;;;;14.61;69.26;96358.97;5114780;28;19982;-59
2023/05/18 12:17:37;;;;;;;;;;;;;;;14.62;69.81;96358.03;5114632;28;19969;-59
2023/05/18 12:20:04;;;;;;;;;;;;;;;14.72;70.23;96358.38;5114729;28;19924;-59
2023/05/18 12:22:31;;;;;;;;;;;;;;;14.77;70.69;96364.19;5114765;28;19927;-60
2023/05/18 12:24:58;;;;;;;;;;;;;;;14.76;69.73;96359.88;5114562;28;19977;-59
2023/05/18 12:27:26;;;;;;;;;;;;;;;14.88;69.59;96364.47;5114358;28;19923;-59
2023/05/18 12:29:53;;;;;;;;;;;;;;;14.94;69.15;96363.25;5114442;28;19923;-60
2023/05/18 12:32:22;;;;;;;;;;;;;;;14.74;67.02;96369.63;5113826;28;20260;-59
2023/05/18 12:34:50;;;;;;;;;;;;;;;14.84;67.74;96359.47;5114343;27;19924;-59
2023/05/18 12:37:19;;;;;;;;;;;;;;;14.84;68.01;96362.94;5114373;28;19928;-59
2023/05/18 12:39:51;;;;;;;;;;;;;;;14.82;69.21;96362.19;5114201;28;19946;-59
2023/05/18 12:42:18;;;;;;;;;;;;;;;14.81;70.96;96360.47;5114247;28;20017;-59
2023/05/18 12:44:45;;;;;;;;;;;;;;;14.76;68.94;96362.50;5114509;28;20015;-59
2023/05/18 12:47:12;;;;;;;;;;;;;;;14.72;68.01;96361.00;5114338;27;19938;-59
2023/05/18 12:49:40;;;;;;;;;;;;;;;14.77;69.92;96362.41;5114155;27;19923;-60
2023/05/18 12:52:13;;;;;;;;;;;;;;;14.76;68.38;96363.38;5114080;28;19924;-59
2023/05/18 12:54:58;;;;;;;;;;;;;;;14.61;68.04;96366.88;5114525;28;20289;-60
2023/05/18 12:57:25;;;;;;;;;;;;;;;14.51;68.85;96367.38;5114398;28;20385;-59